Terminal Aerodrome Forecast
Issued by NWS

Current Version | Previous Version | Text Only | Print | Product List | Glossary On
Versions: 1 2 3 4 5 6 7 8 9 10 11 12 13 14 15 16 17 18
000
FTUS42 KRAH 181128
TAFRWI
TAF
KRWI 181128Z 1812/1912 16005KT P6SM VCSH SCT008 BKN015 OVC030
      TEMPO 1812/1815 SCT015 OVC025
     FM181500 18008KT 6SM SHRA BR VCTS OVC030CB
      TEMPO 1818/1821 3SM SHRA BR OVC015
     FM190300 14007KT 6SM SHRA BR OVC008=

USA.gov is the U.S. government's official web portal to all federal, state and local government web resources and services.